Decoded Metar for UMII (VITEBSK in BELARUS) (IATA:VTB) | Meteo·Mobile Aviation Weather
aviador You're here:

UMII Decoded Metar

VITEBSK in BELARUS
Report Time2018-08-14 10:30:00
UTC Time2018-08-14 10:58:42
Flight Rules vfr VFR
Wind160° at 4 kt
W.Decomp.*RWY 23: 0.8 kt HW 3.9 kt LCW
W.Rank160° ranks 7
Current wind is below 160° avg. (7.5)
Visibility9999 m
Phenomena:N/A
Clouds:N/A
Expected CloudBase > 3,200 ft AGL from Temp-Dew spread
CeilingNone
Temp22°C (ISA +8)
Dew Point14°C (61% RH)
AAT21.9°C
QNH1014 hPa
Density Alt1,837 ft
Elevation682 ft
Report Wrong Elevation
Raw Report
METAR UMII 141030Z 16002MPS CAVOK 22/14 Q1014 R05/D NOSIG=

Extra information for UMII:More info

Metar Taf Metar & Taf Last 4 Metars F.Rules Stats Wind Profile Meteogram Temp Stats Airport Information Weather charts Add Link Nearby VenuesMetar ALERT Operation Metar Decoded Social comments